sensor_id;sensor_type;location;lat;lon;timestamp;P1;durP1;ratioP1;P2;durP2;ratioP2
22223;SDS011;11281;52.194;21.006;2023-10-31T00:00:29;7.13;;;6.43;;
22223;SDS011;11281;52.194;21.006;2023-10-31T00:04:31;8.88;;;6.13;;
22223;SDS011;11281;52.194;21.006;2023-10-31T00:08:33;10.55;;;6.00;;
22223;SDS011;11281;52.194;21.006;2023-10-31T00:12:35;15.45;;;7.82;;
22223;SDS011;11281;52.194;21.006;2023-10-31T00:16:37;13.40;;;5.68;;
22223;SDS011;11281;52.194;21.006;2023-10-31T00:20:38;9.20;;;6.47;;
22223;SDS011;11281;52.194;21.006;2023-10-31T00:24:40;10.45;;;5.93;;
22223;SDS011;11281;52.194;21.006;2023-10-31T00:28:41;9.63;;;5.38;;
22223;SDS011;11281;52.194;21.006;2023-10-31T00:32:43;8.50;;;6.30;;
22223;SDS011;11281;52.194;21.006;2023-10-31T00:36:46;5.55;;;4.82;;
22223;SDS011;11281;52.194;21.006;2023-10-31T00:40:48;8.30;;;5.28;;
22223;SDS011;11281;52.194;21.006;2023-10-31T00:44:49;5.82;;;4.75;;
22223;SDS011;11281;52.194;21.006;2023-10-31T00:48:51;5.32;;;4.40;;
22223;SDS011;11281;52.194;21.006;2023-10-31T00:52:52;5.60;;;4.65;;
22223;SDS011;11281;52.194;21.006;2023-10-31T00:56:54;12.68;;;5.95;;
22223;SDS011;11281;52.194;21.006;2023-10-31T01:00:56;5.80;;;4.65;;
22223;SDS011;11281;52.194;21.006;2023-10-31T01:04:58;7.68;;;4.95;;
22223;SDS011;11281;52.194;21.006;2023-10-31T01:08:59;7.10;;;5.35;;
22223;SDS011;11281;52.194;21.006;2023-10-31T01:13:01;5.72;;;4.57;;
22223;SDS011;11281;52.194;21.006;2023-10-31T01:17:03;6.07;;;5.18;;
22223;SDS011;11281;52.194;21.006;2023-10-31T01:21:05;6.57;;;4.20;;
22223;SDS011;11281;52.194;21.006;2023-10-31T01:25:07;7.90;;;5.20;;
22223;SDS011;11281;52.194;21.006;2023-10-31T01:29:09;5.95;;;4.63;;
22223;SDS011;11281;52.194;21.006;2023-10-31T01:33:11;7.88;;;5.15;;
22223;SDS011;11281;52.194;21.006;2023-10-31T01:37:13;5.28;;;4.68;;
22223;SDS011;11281;52.194;21.006;2023-10-31T01:41:15;9.65;;;7.25;;
22223;SDS011;11281;52.194;21.006;2023-10-31T01:45:17;9.55;;;6.70;;
22223;SDS011;11281;52.194;21.006;2023-10-31T01:49:19;8.07;;;6.28;;
22223;SDS011;11281;52.194;21.006;2023-10-31T01:53:20;8.25;;;5.50;;
22223;SDS011;11281;52.194;21.006;2023-10-31T01:57:24;5.53;;;4.53;;
22223;SDS011;11281;52.194;21.006;2023-10-31T02:01:25;7.53;;;6.18;;
22223;SDS011;11281;52.194;21.006;2023-10-31T02:05:27;6.28;;;5.65;;
22223;SDS011;11281;52.194;21.006;2023-10-31T02:09:29;7.13;;;5.60;;
22223;SDS011;11281;52.194;21.006;2023-10-31T02:13:31;10.38;;;4.82;;
22223;SDS011;11281;52.194;21.006;2023-10-31T02:17:32;6.03;;;5.15;;
22223;SDS011;11281;52.194;21.006;2023-10-31T02:21:38;5.38;;;4.88;;
22223;SDS011;11281;52.194;21.006;2023-10-31T02:25:40;5.18;;;4.78;;
22223;SDS011;11281;52.194;21.006;2023-10-31T02:29:42;5.20;;;4.70;;
22223;SDS011;11281;52.194;21.006;2023-10-31T02:33:44;4.65;;;4.07;;
22223;SDS011;11281;52.194;21.006;2023-10-31T02:37:46;5.75;;;4.13;;
22223;SDS011;11281;52.194;21.006;2023-10-31T02:41:47;5.32;;;4.70;;
22223;SDS011;11281;52.194;21.006;2023-10-31T02:45:49;4.13;;;3.75;;
22223;SDS011;11281;52.194;21.006;2023-10-31T02:49:51;4.55;;;4.18;;
22223;SDS011;11281;52.194;21.006;2023-10-31T02:53:52;5.40;;;3.85;;
22223;SDS011;11281;52.194;21.006;2023-10-31T02:57:54;5.25;;;3.72;;
22223;SDS011;11281;52.194;21.006;2023-10-31T03:01:56;4.57;;;4.18;;
22223;SDS011;11281;52.194;21.006;2023-10-31T03:05:58;4.13;;;3.80;;
22223;SDS011;11281;52.194;21.006;2023-10-31T03:10:00;4.53;;;4.10;;
22223;SDS011;11281;52.194;21.006;2023-10-31T03:14:01;4.45;;;3.97;;
22223;SDS011;11281;52.194;21.006;2023-10-31T03:18:03;3.30;;;3.08;;
22223;SDS011;11281;52.194;21.006;2023-10-31T03:22:05;4.82;;;3.30;;
22223;SDS011;11281;52.194;21.006;2023-10-31T03:26:07;3.85;;;3.50;;
22223;SDS011;11281;52.194;21.006;2023-10-31T03:30:09;5.60;;;3.50;;
22223;SDS011;11281;52.194;21.006;2023-10-31T03:34:11;9.27;;;3.90;;
22223;SDS011;11281;52.194;21.006;2023-10-31T03:38:13;5.78;;;3.38;;
22223;SDS011;11281;52.194;21.006;2023-10-31T03:42:15;4.70;;;4.13;;
22223;SDS011;11281;52.194;21.006;2023-10-31T03:46:17;3.42;;;3.13;;
22223;SDS011;11281;52.194;21.006;2023-10-31T03:50:18;5.00;;;4.28;;
22223;SDS011;11281;52.194;21.006;2023-10-31T03:54:20;4.70;;;4.30;;
22223;SDS011;11281;52.194;21.006;2023-10-31T03:58:22;3.75;;;3.45;;
22223;SDS011;11281;52.194;21.006;2023-10-31T04:02:24;3.45;;;3.15;;
22223;SDS011;11281;52.194;21.006;2023-10-31T04:06:26;5.20;;;4.75;;
22223;SDS011;11281;52.194;21.006;2023-10-31T04:10:28;4.90;;;4.43;;
22223;SDS011;11281;52.194;21.006;2023-10-31T04:14:30;4.43;;;3.85;;
22223;SDS011;11281;52.194;21.006;2023-10-31T04:18:32;3.45;;;3.15;;
22223;SDS011;11281;52.194;21.006;2023-10-31T04:22:34;2.42;;;2.22;;
22223;SDS011;11281;52.194;21.006;2023-10-31T04:26:36;4.50;;;3.30;;
22223;SDS011;11281;52.194;21.006;2023-10-31T04:30:38;3.33;;;2.97;;
22223;SDS011;11281;52.194;21.006;2023-10-31T04:34:39;4.28;;;2.55;;
22223;SDS011;11281;52.194;21.006;2023-10-31T04:38:41;2.70;;;2.50;;
22223;SDS011;11281;52.194;21.006;2023-10-31T04:42:45;2.70;;;2.47;;
22223;SDS011;11281;52.194;21.006;2023-10-31T04:46:47;3.40;;;3.03;;
22223;SDS011;11281;52.194;21.006;2023-10-31T04:50:49;2.42;;;2.22;;
22223;SDS011;11281;52.194;21.006;2023-10-31T04:54:51;5.07;;;2.25;;
22223;SDS011;11281;52.194;21.006;2023-10-31T04:58:53;2.42;;;2.25;;
22223;SDS011;11281;52.194;21.006;2023-10-31T05:02:55;2.92;;;2.63;;
22223;SDS011;11281;52.194;21.006;2023-10-31T05:06:57;3.58;;;3.00;;
22223;SDS011;11281;52.194;21.006;2023-10-31T05:10:59;2.17;;;1.98;;
22223;SDS011;11281;52.194;21.006;2023-10-31T05:15:01;4.78;;;2.63;;
22223;SDS011;11281;52.194;21.006;2023-10-31T05:19:03;2.83;;;2.63;;
22223;SDS011;11281;52.194;21.006;2023-10-31T05:23:05;2.85;;;2.35;;
22223;SDS011;11281;52.194;21.006;2023-10-31T05:27:07;2.13;;;1.95;;
22223;SDS011;11281;52.194;21.006;2023-10-31T05:31:10;6.10;;;2.63;;
22223;SDS011;11281;52.194;21.006;2023-10-31T05:35:13;2.85;;;2.08;;
22223;SDS011;11281;52.194;21.006;2023-10-31T05:39:15;2.50;;;2.40;;
22223;SDS011;11281;52.194;21.006;2023-10-31T05:43:17;3.10;;;2.80;;
22223;SDS011;11281;52.194;21.006;2023-10-31T05:47:19;2.88;;;2.53;;
22223;SDS011;11281;52.194;21.006;2023-10-31T05:51:20;2.65;;;2.45;;
22223;SDS011;11281;52.194;21.006;2023-10-31T05:55:22;3.58;;;3.30;;
22223;SDS011;11281;52.194;21.006;2023-10-31T05:59:24;4.90;;;2.28;;
22223;SDS011;11281;52.194;21.006;2023-10-31T06:03:26;2.65;;;2.45;;
22223;SDS011;11281;52.194;21.006;2023-10-31T06:07:28;3.17;;;2.58;;
22223;SDS011;11281;52.194;21.006;2023-10-31T06:11:30;3.50;;;2.25;;
22223;SDS011;11281;52.194;21.006;2023-10-31T06:15:32;2.13;;;1.92;;
22223;SDS011;11281;52.194;21.006;2023-10-31T06:19:34;2.60;;;2.40;;
22223;SDS011;11281;52.194;21.006;2023-10-31T06:23:37;3.45;;;2.30;;
22223;SDS011;11281;52.194;21.006;2023-10-31T06:27:40;1.98;;;1.63;;
22223;SDS011;11281;52.194;21.006;2023-10-31T06:31:42;2.25;;;2.05;;
22223;SDS011;11281;52.194;21.006;2023-10-31T06:35:44;1.88;;;1.77;;
22223;SDS011;11281;52.194;21.006;2023-10-31T06:39:45;2.25;;;2.10;;
22223;SDS011;11281;52.194;21.006;2023-10-31T06:43:47;1.48;;;1.38;;
22223;SDS011;11281;52.194;21.006;2023-10-31T06:47:49;1.67;;;1.63;;
22223;SDS011;11281;52.194;21.006;2023-10-31T06:51:51;2.33;;;1.70;;
22223;SDS011;11281;52.194;21.006;2023-10-31T06:55:53;2.95;;;2.40;;
22223;SDS011;11281;52.194;21.006;2023-10-31T06:59:55;1.85;;;1.75;;
22223;SDS011;11281;52.194;21.006;2023-10-31T07:03:57;2.15;;;1.95;;
22223;SDS011;11281;52.194;21.006;2023-10-31T07:07:59;1.98;;;1.88;;
22223;SDS011;11281;52.194;21.006;2023-10-31T07:12:01;2.92;;;2.08;;
22223;SDS011;11281;52.194;21.006;2023-10-31T07:16:03;1.90;;;1.80;;
22223;SDS011;11281;52.194;21.006;2023-10-31T07:20:06;3.55;;;2.08;;
22223;SDS011;11281;52.194;21.006;2023-10-31T07:24:09;2.17;;;1.95;;
22223;SDS011;11281;52.194;21.006;2023-10-31T07:28:11;2.30;;;1.80;;
22223;SDS011;11281;52.194;21.006;2023-10-31T07:32:12;2.03;;;1.92;;
22223;SDS011;11281;52.194;21.006;2023-10-31T07:36:14;3.58;;;2.70;;
22223;SDS011;11281;52.194;21.006;2023-10-31T07:40:16;4.00;;;2.38;;
22223;SDS011;11281;52.194;21.006;2023-10-31T07:44:18;3.78;;;2.78;;
22223;SDS011;11281;52.194;21.006;2023-10-31T07:48:19;1.90;;;1.77;;
22223;SDS011;11281;52.194;21.006;2023-10-31T07:52:21;2.25;;;2.10;;
22223;SDS011;11281;52.194;21.006;2023-10-31T07:56:23;2.05;;;1.95;;
22223;SDS011;11281;52.194;21.006;2023-10-31T08:00:26;3.22;;;2.30;;
22223;SDS011;11281;52.194;21.006;2023-10-31T08:04:28;2.83;;;2.60;;
22223;SDS011;11281;52.194;21.006;2023-10-31T08:08:34;1.85;;;1.75;;
22223;SDS011;11281;52.194;21.006;2023-10-31T08:12:36;1.52;;;1.42;;
22223;SDS011;11281;52.194;21.006;2023-10-31T08:16:38;3.20;;;1.98;;
22223;SDS011;11281;52.194;21.006;2023-10-31T08:20:40;2.00;;;1.90;;
22223;SDS011;11281;52.194;21.006;2023-10-31T08:24:45;1.85;;;1.75;;
22223;SDS011;11281;52.194;21.006;2023-10-31T08:28:46;1.70;;;1.60;;
22223;SDS011;11281;52.194;21.006;2023-10-31T08:32:48;3.25;;;2.25;;
22223;SDS011;11281;52.194;21.006;2023-10-31T08:36:50;2.63;;;1.92;;
22223;SDS011;11281;52.194;21.006;2023-10-31T08:40:54;2.72;;;2.25;;
22223;SDS011;11281;52.194;21.006;2023-10-31T08:44:56;1.80;;;1.67;;
22223;SDS011;11281;52.194;21.006;2023-10-31T08:48:58;2.35;;;1.85;;
22223;SDS011;11281;52.194;21.006;2023-10-31T08:53:01;2.20;;;2.00;;
22223;SDS011;11281;52.194;21.006;2023-10-31T08:57:03;4.28;;;2.05;;
22223;SDS011;11281;52.194;21.006;2023-10-31T09:01:05;1.70;;;1.60;;
22223;SDS011;11281;52.194;21.006;2023-10-31T09:05:07;1.30;;;1.20;;
22223;SDS011;11281;52.194;21.006;2023-10-31T09:09:09;7.72;;;2.00;;
22223;SDS011;11281;52.194;21.006;2023-10-31T09:13:11;3.85;;;2.58;;
22223;SDS011;11281;52.194;21.006;2023-10-31T09:17:13;1.90;;;1.80;;
22223;SDS011;11281;52.194;21.006;2023-10-31T09:21:15;1.92;;;1.73;;
22223;SDS011;11281;52.194;21.006;2023-10-31T09:25:17;2.65;;;1.63;;
22223;SDS011;11281;52.194;21.006;2023-10-31T09:29:19;5.93;;;1.80;;
22223;SDS011;11281;52.194;21.006;2023-10-31T09:33:20;2.08;;;1.60;;
22223;SDS011;11281;52.194;21.006;2023-10-31T09:37:22;1.48;;;1.38;;
22223;SDS011;11281;52.194;21.006;2023-10-31T09:41:24;2.00;;;1.90;;
22223;SDS011;11281;52.194;21.006;2023-10-31T09:45:25;2.58;;;1.45;;
22223;SDS011;11281;52.194;21.006;2023-10-31T09:49:27;2.83;;;1.85;;
22223;SDS011;11281;52.194;21.006;2023-10-31T09:53:31;2.25;;;1.55;;
22223;SDS011;11281;52.194;21.006;2023-10-31T09:57:35;1.60;;;1.42;;
22223;SDS011;11281;52.194;21.006;2023-10-31T10:01:36;2.40;;;1.35;;
22223;SDS011;11281;52.194;21.006;2023-10-31T10:05:38;1.85;;;1.75;;
22223;SDS011;11281;52.194;21.006;2023-10-31T10:09:42;6.50;;;1.17;;
22223;SDS011;11281;52.194;21.006;2023-10-31T10:13:44;1.02;;;1.02;;
22223;SDS011;11281;52.194;21.006;2023-10-31T10:17:48;1.58;;;1.48;;
22223;SDS011;11281;52.194;21.006;2023-10-31T10:21:55;1.73;;;1.63;;
22223;SDS011;11281;52.194;21.006;2023-10-31T10:25:59;2.15;;;1.55;;
22223;SDS011;11281;52.194;21.006;2023-10-31T10:30:03;1.45;;;1.35;;
22223;SDS011;11281;52.194;21.006;2023-10-31T10:34:05;3.15;;;1.85;;
22223;SDS011;11281;52.194;21.006;2023-10-31T10:38:12;1.25;;;1.25;;
22223;SDS011;11281;52.194;21.006;2023-10-31T10:42:18;2.22;;;1.75;;
22223;SDS011;11281;52.194;21.006;2023-10-31T10:46:37;1.83;;;1.45;;
22223;SDS011;11281;52.194;21.006;2023-10-31T10:50:41;2.55;;;1.42;;
22223;SDS011;11281;52.194;21.006;2023-10-31T10:54:45;1.63;;;1.52;;
22223;SDS011;11281;52.194;21.006;2023-10-31T10:59:06;1.88;;;1.20;;
22223;SDS011;11281;52.194;21.006;2023-10-31T11:03:16;1.33;;;1.15;;
22223;SDS011;11281;52.194;21.006;2023-10-31T11:07:20;1.30;;;1.20;;
22223;SDS011;11281;52.194;21.006;2023-10-31T11:11:25;3.88;;;1.98;;
22223;SDS011;11281;52.194;21.006;2023-10-31T11:15:28;2.40;;;1.70;;
22223;SDS011;11281;52.194;21.006;2023-10-31T11:19:30;2.13;;;1.58;;
22223;SDS011;11281;52.194;21.006;2023-10-31T11:23:31;6.20;;;2.00;;
22223;SDS011;11281;52.194;21.006;2023-10-31T11:27:33;18.88;;;12.82;;
22223;SDS011;11281;52.194;21.006;2023-10-31T11:31:37;33.88;;;19.48;;
22223;SDS011;11281;52.194;21.006;2023-10-31T11:35:40;25.05;;;13.35;;
22223;SDS011;11281;52.194;21.006;2023-10-31T11:39:42;19.20;;;10.63;;
22223;SDS011;11281;52.194;21.006;2023-10-31T11:44:22;12.70;;;9.00;;
22223;SDS011;11281;52.194;21.006;2023-10-31T11:48:44;51.03;;;23.00;;
22223;SDS011;11281;52.194;21.006;2023-10-31T11:57:27;29.73;;;16.83;;
22223;SDS011;11281;52.194;21.006;2023-10-31T12:01:29;3.65;;;2.78;;
22223;SDS011;11281;52.194;21.006;2023-10-31T12:05:31;1.83;;;1.60;;
22223;SDS011;11281;52.194;21.006;2023-10-31T12:09:32;1.63;;;1.40;;
22223;SDS011;11281;52.194;21.006;2023-10-31T12:13:35;1.13;;;1.13;;
22223;SDS011;11281;52.194;21.006;2023-10-31T12:17:52;1.27;;;1.20;;
22223;SDS011;11281;52.194;21.006;2023-10-31T12:21:58;2.30;;;1.75;;
22223;SDS011;11281;52.194;21.006;2023-10-31T12:26:00;1.38;;;1.27;;
22223;SDS011;11281;52.194;21.006;2023-10-31T12:30:01;1.17;;;1.17;;
22223;SDS011;11281;52.194;21.006;2023-10-31T12:34:06;2.00;;;1.77;;
22223;SDS011;11281;52.194;21.006;2023-10-31T12:38:10;1.02;;;1.02;;
22223;SDS011;11281;52.194;21.006;2023-10-31T12:42:13;0.93;;;0.90;;
22223;SDS011;11281;52.194;21.006;2023-10-31T12:46:28;4.32;;;1.95;;
22223;SDS011;11281;52.194;21.006;2023-10-31T12:50:35;1.63;;;1.52;;
22223;SDS011;11281;52.194;21.006;2023-10-31T12:54:38;1.17;;;1.15;;
22223;SDS011;11281;52.194;21.006;2023-10-31T12:58:40;0.80;;;0.80;;
22223;SDS011;11281;52.194;21.006;2023-10-31T13:02:42;1.10;;;1.00;;
22223;SDS011;11281;52.194;21.006;2023-10-31T13:06:54;1.70;;;1.30;;
22223;SDS011;11281;52.194;21.006;2023-10-31T13:11:03;1.60;;;1.25;;
22223;SDS011;11281;52.194;21.006;2023-10-31T13:15:05;1.83;;;1.33;;
22223;SDS011;11281;52.194;21.006;2023-10-31T13:19:08;1.15;;;1.10;;
22223;SDS011;11281;52.194;21.006;2023-10-31T13:23:09;1.08;;;0.98;;
22223;SDS011;11281;52.194;21.006;2023-10-31T13:27:11;0.70;;;0.70;;
22223;SDS011;11281;52.194;21.006;2023-10-31T13:31:17;1.30;;;1.25;;
22223;SDS011;11281;52.194;21.006;2023-10-31T13:35:19;3.08;;;1.08;;
22223;SDS011;11281;52.194;21.006;2023-10-31T13:39:21;1.88;;;1.23;;
22223;SDS011;11281;52.194;21.006;2023-10-31T13:43:22;2.20;;;2.00;;
22223;SDS011;11281;52.194;21.006;2023-10-31T13:47:24;1.35;;;1.27;;
22223;SDS011;11281;52.194;21.006;2023-10-31T13:51:26;1.60;;;1.50;;
22223;SDS011;11281;52.194;21.006;2023-10-31T13:55:28;1.25;;;1.17;;
22223;SDS011;11281;52.194;21.006;2023-10-31T13:59:30;0.70;;;0.70;;
22223;SDS011;11281;52.194;21.006;2023-10-31T14:03:32;0.90;;;0.90;;
22223;SDS011;11281;52.194;21.006;2023-10-31T14:07:34;0.98;;;0.98;;
22223;SDS011;11281;52.194;21.006;2023-10-31T14:11:36;2.28;;;0.73;;
22223;SDS011;11281;52.194;21.006;2023-10-31T14:15:38;1.13;;;0.85;;
22223;SDS011;11281;52.194;21.006;2023-10-31T14:19:39;0.93;;;0.93;;
22223;SDS011;11281;52.194;21.006;2023-10-31T14:23:41;0.98;;;0.98;;
22223;SDS011;11281;52.194;21.006;2023-10-31T14:27:43;0.88;;;0.88;;
22223;SDS011;11281;52.194;21.006;2023-10-31T14:31:45;1.80;;;0.65;;
22223;SDS011;11281;52.194;21.006;2023-10-31T14:35:46;0.75;;;0.75;;
22223;SDS011;11281;52.194;21.006;2023-10-31T14:39:48;1.30;;;1.20;;
22223;SDS011;11281;52.194;21.006;2023-10-31T14:43:49;1.00;;;1.00;;
22223;SDS011;11281;52.194;21.006;2023-10-31T14:47:51;2.20;;;1.55;;
22223;SDS011;11281;52.194;21.006;2023-10-31T14:51:53;1.75;;;1.65;;
22223;SDS011;11281;52.194;21.006;2023-10-31T14:55:55;1.10;;;1.10;;
22223;SDS011;11281;52.194;21.006;2023-10-31T14:59:57;1.58;;;1.48;;
22223;SDS011;11281;52.194;21.006;2023-10-31T15:04:00;1.75;;;1.38;;
22223;SDS011;11281;52.194;21.006;2023-10-31T15:08:01;2.25;;;2.10;;
22223;SDS011;11281;52.194;21.006;2023-10-31T15:12:03;1.60;;;1.50;;
22223;SDS011;11281;52.194;21.006;2023-10-31T15:16:05;1.52;;;1.42;;
22223;SDS011;11281;52.194;21.006;2023-10-31T15:20:07;1.10;;;1.10;;
22223;SDS011;11281;52.194;21.006;2023-10-31T15:28:17;1.73;;;1.63;;
22223;SDS011;11281;52.194;21.006;2023-10-31T15:32:18;1.90;;;1.80;;
22223;SDS011;11281;52.194;21.006;2023-10-31T15:36:20;2.22;;;2.13;;
22223;SDS011;11281;52.194;21.006;2023-10-31T15:40:22;2.40;;;2.25;;
22223;SDS011;11281;52.194;21.006;2023-10-31T15:44:24;2.85;;;2.65;;
22223;SDS011;11281;52.194;21.006;2023-10-31T15:48:26;1.08;;;1.08;;
22223;SDS011;11281;52.194;21.006;2023-10-31T15:52:28;3.22;;;2.70;;
22223;SDS011;11281;52.194;21.006;2023-10-31T15:56:30;2.15;;;1.73;;
22223;SDS011;11281;52.194;21.006;2023-10-31T16:00:31;1.52;;;1.42;;
22223;SDS011;11281;52.194;21.006;2023-10-31T16:04:33;0.93;;;0.93;;
22223;SDS011;11281;52.194;21.006;2023-10-31T16:08:35;1.05;;;1.05;;
22223;SDS011;11281;52.194;21.006;2023-10-31T16:12:40;1.10;;;1.10;;
22223;SDS011;11281;52.194;21.006;2023-10-31T16:16:42;1.23;;;1.23;;
22223;SDS011;11281;52.194;21.006;2023-10-31T16:20:43;0.93;;;0.93;;
22223;SDS011;11281;52.194;21.006;2023-10-31T16:24:48;0.98;;;0.98;;
22223;SDS011;11281;52.194;21.006;2023-10-31T16:28:52;1.67;;;1.58;;
22223;SDS011;11281;52.194;21.006;2023-10-31T16:32:53;1.80;;;1.70;;
22223;SDS011;11281;52.194;21.006;2023-10-31T16:36:55;5.07;;;2.83;;
22223;SDS011;11281;52.194;21.006;2023-10-31T16:40:59;3.03;;;2.67;;
22223;SDS011;11281;52.194;21.006;2023-10-31T16:45:02;4.32;;;3.28;;
22223;SDS011;11281;52.194;21.006;2023-10-31T16:49:06;1.90;;;1.75;;
22223;SDS011;11281;52.194;21.006;2023-10-31T16:53:08;2.95;;;2.75;;
22223;SDS011;11281;52.194;21.006;2023-10-31T16:57:10;7.75;;;4.15;;
22223;SDS011;11281;52.194;21.006;2023-10-31T17:01:12;4.68;;;3.40;;
22223;SDS011;11281;52.194;21.006;2023-10-31T17:05:15;5.15;;;3.65;;
22223;SDS011;11281;52.194;21.006;2023-10-31T17:09:17;13.02;;;4.43;;
22223;SDS011;11281;52.194;21.006;2023-10-31T17:13:19;7.18;;;4.97;;
22223;SDS011;11281;52.194;21.006;2023-10-31T17:17:21;9.23;;;6.43;;
22223;SDS011;11281;52.194;21.006;2023-10-31T17:21:23;5.22;;;3.42;;
22223;SDS011;11281;52.194;21.006;2023-10-31T17:25:24;6.32;;;3.53;;
22223;SDS011;11281;52.194;21.006;2023-10-31T17:29:26;8.48;;;4.65;;
22223;SDS011;11281;52.194;21.006;2023-10-31T17:33:27;4.50;;;3.03;;
22223;SDS011;11281;52.194;21.006;2023-10-31T17:37:29;4.53;;;3.20;;
22223;SDS011;11281;52.194;21.006;2023-10-31T17:41:31;2.15;;;1.95;;
22223;SDS011;11281;52.194;21.006;2023-10-31T17:45:32;1.85;;;1.58;;
22223;SDS011;11281;52.194;21.006;2023-10-31T17:49:34;3.15;;;2.92;;
22223;SDS011;11281;52.194;21.006;2023-10-31T17:53:36;7.25;;;6.47;;
22223;SDS011;11281;52.194;21.006;2023-10-31T17:57:39;2.83;;;2.63;;
22223;SDS011;11281;52.194;21.006;2023-10-31T18:01:41;1.80;;;1.70;;
22223;SDS011;11281;52.194;21.006;2023-10-31T18:05:42;2.78;;;2.20;;
22223;SDS011;11281;52.194;21.006;2023-10-31T18:09:44;1.88;;;1.77;;
22223;SDS011;11281;52.194;21.006;2023-10-31T18:13:45;2.05;;;1.95;;
22223;SDS011;11281;52.194;21.006;2023-10-31T18:17:47;2.03;;;1.80;;
22223;SDS011;11281;52.194;21.006;2023-10-31T18:21:49;2.00;;;1.90;;
22223;SDS011;11281;52.194;21.006;2023-10-31T18:25:51;1.83;;;1.73;;
22223;SDS011;11281;52.194;21.006;2023-10-31T18:29:54;1.70;;;1.60;;
22223;SDS011;11281;52.194;21.006;2023-10-31T18:33:56;1.92;;;1.25;;
22223;SDS011;11281;52.194;21.006;2023-10-31T18:37:58;2.17;;;1.98;;
22223;SDS011;11281;52.194;21.006;2023-10-31T18:41:59;2.50;;;2.00;;
22223;SDS011;11281;52.194;21.006;2023-10-31T18:46:01;2.50;;;2.30;;
22223;SDS011;11281;52.194;21.006;2023-10-31T18:50:03;2.05;;;1.40;;
22223;SDS011;11281;52.194;21.006;2023-10-31T18:54:05;3.92;;;3.45;;
22223;SDS011;11281;52.194;21.006;2023-10-31T18:58:06;4.93;;;3.58;;
22223;SDS011;11281;52.194;21.006;2023-10-31T19:02:09;2.80;;;2.60;;
22223;SDS011;11281;52.194;21.006;2023-10-31T19:06:10;2.35;;;2.17;;
22223;SDS011;11281;52.194;21.006;2023-10-31T19:10:12;2.08;;;1.52;;
22223;SDS011;11281;52.194;21.006;2023-10-31T19:14:15;2.35;;;2.13;;
22223;SDS011;11281;52.194;21.006;2023-10-31T19:18:16;4.90;;;3.30;;
22223;SDS011;11281;52.194;21.006;2023-10-31T19:22:18;2.25;;;2.15;;
22223;SDS011;11281;52.194;21.006;2023-10-31T19:26:20;2.78;;;1.73;;
22223;SDS011;11281;52.194;21.006;2023-10-31T19:30:22;2.45;;;2.25;;
22223;SDS011;11281;52.194;21.006;2023-10-31T19:34:24;3.15;;;2.90;;
22223;SDS011;11281;52.194;21.006;2023-10-31T19:38:26;2.38;;;2.17;;
22223;SDS011;11281;52.194;21.006;2023-10-31T19:42:30;2.33;;;2.13;;
22223;SDS011;11281;52.194;21.006;2023-10-31T19:46:31;1.90;;;1.80;;
22223;SDS011;11281;52.194;21.006;2023-10-31T19:50:33;2.60;;;2.40;;
22223;SDS011;11281;52.194;21.006;2023-10-31T19:54:35;1.90;;;1.80;;
22223;SDS011;11281;52.194;21.006;2023-10-31T19:58:37;2.90;;;2.20;;
22223;SDS011;11281;52.194;21.006;2023-10-31T20:02:38;2.47;;;2.28;;
22223;SDS011;11281;52.194;21.006;2023-10-31T20:06:40;3.03;;;2.35;;
22223;SDS011;11281;52.194;21.006;2023-10-31T20:10:42;2.45;;;1.83;;
22223;SDS011;11281;52.194;21.006;2023-10-31T20:14:44;2.90;;;2.13;;
22223;SDS011;11281;52.194;21.006;2023-10-31T20:18:45;3.60;;;2.63;;
22223;SDS011;11281;52.194;21.006;2023-10-31T20:22:47;3.17;;;2.15;;
22223;SDS011;11281;52.194;21.006;2023-10-31T20:26:50;2.03;;;1.90;;
22223;SDS011;11281;52.194;21.006;2023-10-31T20:30:52;3.92;;;2.53;;
22223;SDS011;11281;52.194;21.006;2023-10-31T20:34:53;2.15;;;2.05;;
22223;SDS011;11281;52.194;21.006;2023-10-31T20:38:55;1.85;;;1.75;;
22223;SDS011;11281;52.194;21.006;2023-10-31T20:42:57;1.55;;;1.45;;
22223;SDS011;11281;52.194;21.006;2023-10-31T20:46:59;1.63;;;1.52;;
22223;SDS011;11281;52.194;21.006;2023-10-31T20:51:04;1.60;;;1.50;;
22223;SDS011;11281;52.194;21.006;2023-10-31T20:55:06;2.10;;;2.00;;
22223;SDS011;11281;52.194;21.006;2023-10-31T20:59:32;2.40;;;2.20;;
22223;SDS011;11281;52.194;21.006;2023-10-31T21:09:36;2.97;;;2.15;;
22223;SDS011;11281;52.194;21.006;2023-10-31T21:13:38;3.70;;;1.90;;
22223;SDS011;11281;52.194;21.006;2023-10-31T21:17:51;1.58;;;1.45;;
22223;SDS011;11281;52.194;21.006;2023-10-31T21:22:13;2.25;;;2.10;;
22223;SDS011;11281;52.194;21.006;2023-10-31T21:26:54;1.92;;;1.83;;
22223;SDS011;11281;52.194;21.006;2023-10-31T21:31:10;2.78;;;2.58;;
22223;SDS011;11281;52.194;21.006;2023-10-31T21:35:29;2.88;;;2.40;;
22223;SDS011;11281;52.194;21.006;2023-10-31T21:39:43;1.75;;;1.63;;
22223;SDS011;11281;52.194;21.006;2023-10-31T21:48:34;4.60;;;2.85;;
22223;SDS011;11281;52.194;21.006;2023-10-31T21:52:36;2.70;;;2.47;;
22223;SDS011;11281;52.194;21.006;2023-10-31T21:56:37;3.53;;;2.65;;
22223;SDS011;11281;52.194;21.006;2023-10-31T22:00:39;4.78;;;3.13;;
22223;SDS011;11281;52.194;21.006;2023-10-31T22:04:42;2.22;;;2.13;;
22223;SDS011;11281;52.194;21.006;2023-10-31T22:08:46;1.90;;;1.80;;
22223;SDS011;11281;52.194;21.006;2023-10-31T22:12:48;2.00;;;1.90;;
22223;SDS011;11281;52.194;21.006;2023-10-31T22:16:54;2.42;;;2.30;;
22223;SDS011;11281;52.194;21.006;2023-10-31T22:20:56;2.47;;;2.28;;
22223;SDS011;11281;52.194;21.006;2023-10-31T22:24:57;2.50;;;2.30;;
22223;SDS011;11281;52.194;21.006;2023-10-31T22:28:59;1.98;;;1.88;;
22223;SDS011;11281;52.194;21.006;2023-10-31T22:33:01;1.90;;;1.80;;
22223;SDS011;11281;52.194;21.006;2023-10-31T22:37:04;1.42;;;1.33;;
22223;SDS011;11281;52.194;21.006;2023-10-31T22:41:06;1.15;;;1.15;;
22223;SDS011;11281;52.194;21.006;2023-10-31T22:45:08;2.25;;;1.85;;
22223;SDS011;11281;52.194;21.006;2023-10-31T22:49:11;2.60;;;2.38;;
22223;SDS011;11281;52.194;21.006;2023-10-31T22:53:35;2.47;;;2.13;;
22223;SDS011;11281;52.194;21.006;2023-10-31T22:57:36;2.38;;;1.58;;
22223;SDS011;11281;52.194;21.006;2023-10-31T23:01:40;3.15;;;2.42;;
22223;SDS011;11281;52.194;21.006;2023-10-31T23:05:47;3.47;;;2.22;;
22223;SDS011;11281;52.194;21.006;2023-10-31T23:14:39;2.05;;;1.85;;
22223;SDS011;11281;52.194;21.006;2023-10-31T23:23:31;4.28;;;2.65;;
22223;SDS011;11281;52.194;21.006;2023-10-31T23:27:59;3.70;;;2.47;;
22223;SDS011;11281;52.194;21.006;2023-10-31T23:32:05;3.22;;;2.45;;
22223;SDS011;11281;52.194;21.006;2023-10-31T23:36:10;2.83;;;2.38;;
22223;SDS011;11281;52.194;21.006;2023-10-31T23:40:23;4.97;;;3.50;;
22223;SDS011;11281;52.194;21.006;2023-10-31T23:44:27;4.82;;;3.38;;
22223;SDS011;11281;52.194;21.006;2023-10-31T23:48:33;4.20;;;2.95;;
22223;SDS011;11281;52.194;21.006;2023-10-31T23:53:38;2.15;;;1.95;;
22223;SDS011;11281;52.194;21.006;2023-10-31T23:57:43;3.20;;;2.63;;
